Time;durP1;ratioP1;P1;durP2;ratioP2;P2;SDS_P1;SDS_P2;PMS_P1;PMS_P2;Temp;Humidity;BMP_temperature;BMP_pressure;BME280_temperature;BME280_humidity;BME280_pressure;Samples;Min_cycle;Max_cycle;Signal;HPM_P1;HPM_P2
2021/09/28 00:00:10;;;;;;;27.03;24.40;;;17.60;1.00;;;;;;4983160;28;22086;-84
2021/09/28 00:02:38;;;;;;;25.80;23.13;;;17.60;1.00;;;;;;4974554;28;20466;-83
2021/09/28 00:05:08;;;;;;;25.63;23.13;;;17.60;1.00;;;;;;4984054;28;20407;-83
2021/09/28 00:07:36;;;;;;;29.47;26.60;;;17.60;1.00;;;;;;4984007;28;20412;-83
2021/09/28 00:10:05;;;;;;;26.47;23.73;;;17.60;1.00;;;;;;4976104;28;20423;-85
2021/09/28 00:12:32;;;;;;;28.47;25.77;;;17.60;1.00;;;;;;4970025;28;20586;-82
2021/09/28 00:14:59;;;;;;;27.20;24.70;;;17.50;1.00;;;;;;4984559;28;20412;-85
2021/09/28 00:17:26;;;;;;;27.27;24.77;;;17.40;1.00;;;;;;4981913;28;20451;-83
2021/09/28 00:19:56;;;;;;;28.10;25.40;;;17.40;1.00;;;;;;4984053;28;20540;-84
2021/09/28 00:22:24;;;;;;;26.83;24.40;;;17.30;1.00;;;;;;4983851;28;20506;-84
2021/09/28 00:24:53;;;;;;;28.00;25.40;;;17.30;1.00;;;;;;4982767;28;24831;-84
2021/09/28 00:27:24;;;;;;;28.57;25.83;;;17.30;1.00;;;;;;4986511;28;20474;-85
2021/09/28 00:29:52;;;;;;;27.80;25.30;;;17.30;1.00;;;;;;4966693;28;20478;-82
2021/09/28 00:32:21;;;;;;;29.10;26.20;;;17.30;1.00;;;;;;4985425;28;20461;-82
2021/09/28 00:34:48;;;;;;;29.23;26.33;;;17.30;1.00;;;;;;4979895;28;20786;-85
2021/09/28 00:37:16;;;;;;;27.90;25.23;;;17.30;1.00;;;;;;4981188;28;21206;-84
2021/09/28 00:39:45;;;;;;;28.90;26.30;;;17.40;1.00;;;;;;4983600;28;20464;-83
2021/09/28 00:42:12;;;;;;;28.20;25.70;;;17.40;1.00;;;;;;4972098;28;20558;-81
2021/09/28 00:44:42;;;;;;;27.67;25.07;;;17.40;1.00;;;;;;4983404;28;20441;-86
2021/09/28 00:47:10;;;;;;;27.77;25.17;;;17.40;1.00;;;;;;4980962;28;20473;-84
2021/09/28 00:49:41;;;;;;;30.33;27.13;;;17.40;1.00;;;;;;4996240;28;20896;-84
2021/09/28 00:52:08;;;;;;;27.23;24.53;;;17.40;1.00;;;;;;4997612;28;20531;-84
2021/09/28 00:54:38;;;;;;;27.23;24.73;;;17.40;1.00;;;;;;4984943;28;20424;-83
2021/09/28 00:57:09;;;;;;;29.90;27.00;;;17.50;1.00;;;;;;4981541;28;20533;-85
2021/09/28 00:59:40;;;;;;;27.57;24.97;;;17.50;1.00;;;;;;4973968;28;20476;-84
2021/09/28 01:02:07;;;;;;;29.47;26.70;;;17.50;1.00;;;;;;4988036;28;20437;-83
2021/09/28 01:04:36;;;;;;;29.87;27.17;;;17.60;1.00;;;;;;4987145;28;20409;-84
2021/09/28 01:07:05;;;;;;;29.07;26.27;;;17.60;1.00;;;;;;4972765;28;20614;-81
2021/09/28 01:09:39;;;;;;;31.23;28.10;;;17.60;1.00;;;;;;4967706;28;20525;-84
2021/09/28 01:12:10;;;;;;;29.10;26.20;;;17.70;1.00;;;;;;4962168;28;20454;-83
2021/09/28 01:14:41;;;;;;;30.70;27.63;;;17.70;1.00;;;;;;4984233;28;21026;-84
2021/09/28 01:17:11;;;;;;;28.37;25.63;;;17.70;1.00;;;;;;4983843;28;20458;-85
2021/09/28 01:19:39;;;;;;;31.60;28.30;;;17.70;1.00;;;;;;4979223;28;20464;-85
2021/09/28 01:22:09;;;;;;;27.30;24.70;;;17.70;1.00;;;;;;4984295;28;20563;-84
2021/09/28 01:24:39;;;;;;;30.40;27.47;;;17.80;1.00;;;;;;4985183;28;20522;-84
2021/09/28 01:27:07;;;;;;;29.87;26.97;;;17.70;1.00;;;;;;4981632;28;20428;-85
2021/09/28 01:29:36;;;;;;;30.13;27.20;;;17.70;1.00;;;;;;4978120;28;20414;-83
2021/09/28 01:32:04;;;;;;;30.83;27.83;;;17.60;1.00;;;;;;4982214;28;20495;-84
2021/09/28 01:34:32;;;;;;;30.00;27.00;;;17.60;1.00;;;;;;4974051;28;20463;-84
2021/09/28 01:37:01;;;;;;;31.20;28.00;;;17.60;1.00;;;;;;4974664;28;20436;-86
2021/09/28 01:39:32;;;;;;;28.40;25.73;;;17.60;1.00;;;;;;4994785;28;20420;-85
2021/09/28 01:41:59;;;;;;;28.90;26.10;;;17.60;1.00;;;;;;4966576;28;20462;-83
2021/09/28 01:44:33;;;;;;;30.07;27.33;;;17.50;1.00;;;;;;4985085;28;20435;-85
2021/09/28 01:47:04;;;;;;;28.17;25.30;;;17.50;1.00;;;;;;4973921;28;20470;-84
2021/09/28 01:49:34;;;;;;;33.03;27.60;;;17.60;1.00;;;;;;4987253;28;21146;-85
2021/09/28 01:52:01;;;;;;;30.87;27.87;;;17.60;1.00;;;;;;4985222;28;20627;-83
2021/09/28 01:54:31;;;;;;;29.13;26.03;;;17.60;1.00;;;;;;4979223;28;20458;-83
2021/09/28 01:56:58;;;;;;;32.60;27.90;;;17.60;1.00;;;;;;4982114;28;20552;-85
2021/09/28 01:59:26;;;;;;;30.23;27.20;;;17.60;1.00;;;;;;4980035;28;20435;-86
2021/09/28 02:01:56;;;;;;;30.60;27.73;;;17.60;1.00;;;;;;4999279;28;20467;-83
2021/09/28 02:04:24;;;;;;;28.70;25.83;;;17.70;1.00;;;;;;4991654;28;20408;-85
2021/09/28 02:06:52;;;;;;;30.20;27.10;;;17.70;1.00;;;;;;4985099;28;20513;-85
2021/09/28 02:09:21;;;;;;;28.93;26.10;;;17.70;1.00;;;;;;4981317;28;20475;-84
2021/09/28 02:11:52;;;;;;;28.90;26.10;;;17.70;1.00;;;;;;4992194;28;20934;-85
2021/09/28 02:14:26;;;;;;;29.60;26.67;;;17.70;1.00;;;;;;4982580;28;20916;-83
2021/09/28 02:16:54;;;;;;;29.33;26.43;;;17.70;1.00;;;;;;4983538;28;20581;-84
2021/09/28 02:19:24;;;;;;;29.47;26.40;;;17.70;1.00;;;;;;4988821;28;20422;-84
2021/09/28 02:21:51;;;;;;;27.80;25.10;;;17.70;1.00;;;;;;4986123;28;20491;-85
2021/09/28 02:24:19;;;;;;;30.00;27.10;;;17.70;1.00;;;;;;4984748;28;20437;-85
2021/09/28 02:26:47;;;;;;;28.03;25.23;;;17.70;1.00;;;;;;4982171;28;20451;-84
2021/09/28 02:29:18;;;;;;;27.60;25.00;;;17.70;1.00;;;;;;4984072;28;20412;-84
2021/09/28 02:31:46;;;;;;;27.40;24.50;;;17.70;1.00;;;;;;4982293;28;20427;-85
2021/09/28 02:34:15;;;;;;;25.83;23.23;;;17.80;1.00;;;;;;4988891;28;20484;-84
2021/09/28 02:36:45;;;;;;;25.13;22.60;;;17.70;1.00;;;;;;4990161;28;20470;-86
2021/09/28 02:39:14;;;;;;;22.37;20.17;;;17.80;1.00;;;;;;4990359;28;20485;-86
2021/09/28 02:41:43;;;;;;;22.83;19.37;;;17.80;1.00;;;;;;4984031;28;20564;-84
2021/09/28 02:44:13;;;;;;;21.97;19.77;;;17.80;1.00;;;;;;4978030;28;20686;-86
2021/09/28 02:46:45;;;;;;;20.07;18.10;;;17.90;1.00;;;;;;4984755;28;20533;-85
2021/09/28 02:49:12;;;;;;;20.10;18.20;;;18.00;1.00;;;;;;4953956;28;20530;-85
2021/09/28 02:51:39;;;;;;;20.00;18.03;;;18.00;1.00;;;;;;4965927;28;20675;-85
2021/09/28 02:54:09;;;;;;;17.93;16.23;;;18.00;1.00;;;;;;4984478;28;20428;-84
2021/09/28 02:56:37;;;;;;;17.70;16.10;;;18.10;1.00;;;;;;4989118;28;20443;-84
2021/09/28 02:59:04;;;;;;;17.77;16.13;;;18.10;1.00;;;;;;4986420;28;20534;-84
2021/09/28 03:01:31;;;;;;;18.87;17.00;;;18.10;1.00;;;;;;5002814;28;20506;-83
2021/09/28 03:03:59;;;;;;;18.60;16.70;;;18.10;1.00;;;;;;4987167;28;20466;-84
2021/09/28 03:06:26;;;;;;;18.70;17.00;;;18.10;1.00;;;;;;4990498;28;20982;-85
2021/09/28 03:08:53;;;;;;;16.13;14.43;;;18.20;1.00;;;;;;4987801;28;20427;-84
2021/09/28 03:11:26;;;;;;;18.27;16.47;;;18.20;1.00;;;;;;4984162;28;20531;-84
2021/09/28 03:13:56;;;;;;;18.80;16.83;;;18.20;1.00;;;;;;4985682;28;20457;-84
2021/09/28 03:16:27;;;;;;;19.03;17.23;;;18.20;1.00;;;;;;4986219;28;20473;-84
2021/09/28 03:18:54;;;;;;;17.57;15.93;;;18.20;1.00;;;;;;4988255;28;20481;-85
2021/09/28 03:21:24;;;;;;;17.33;15.63;;;18.20;1.00;;;;;;4989359;28;22299;-85
2021/09/28 03:23:53;;;;;;;16.30;14.70;;;18.20;1.00;;;;;;4986254;28;22347;-84
2021/09/28 03:26:21;;;;;;;16.13;14.57;;;18.20;1.00;;;;;;5000486;28;20610;-84
2021/09/28 03:28:49;;;;;;;16.40;14.87;;;18.20;1.00;;;;;;4984720;28;20448;-83
2021/09/28 03:31:19;;;;;;;15.47;13.60;;;18.20;1.00;;;;;;4983481;28;20502;-84
2021/09/28 03:33:46;;;;;;;18.00;13.47;;;18.20;1.00;;;;;;5000867;28;20426;-83
2021/09/28 03:36:16;;;;;;;15.53;14.03;;;18.20;1.00;;;;;;4984443;28;20443;-84
2021/09/28 03:38:45;;;;;;;13.60;12.37;;;18.20;1.00;;;;;;4983193;28;20434;-83
2021/09/28 03:41:15;;;;;;;13.50;12.30;;;18.20;1.00;;;;;;4987966;28;20475;-84
2021/09/28 03:43:45;;;;;;;14.07;12.77;;;18.20;1.00;;;;;;4991859;28;20420;-82
2021/09/28 03:46:15;;;;;;;15.07;13.67;;;18.20;1.00;;;;;;4993789;28;20446;-83
2021/09/28 03:48:42;;;;;;;16.77;15.20;;;18.20;1.00;;;;;;4970189;28;20456;-83
2021/09/28 03:51:13;;;;;;;13.93;12.63;;;18.20;1.00;;;;;;4986215;28;21180;-84
2021/09/28 03:53:40;;;;;;;13.97;12.57;;;18.10;1.00;;;;;;4987545;28;20455;-84
2021/09/28 03:56:09;;;;;;;12.50;11.40;;;18.10;1.00;;;;;;4985753;28;21003;-84
2021/09/28 03:58:36;;;;;;;11.70;10.60;;;18.10;1.00;;;;;;4982761;28;21006;-84
2021/09/28 04:01:03;;;;;;;12.10;10.93;;;18.00;1.00;;;;;;4985120;28;21085;-83
2021/09/28 04:03:30;;;;;;;12.40;10.97;;;18.00;1.00;;;;;;4986157;28;20481;-84
2021/09/28 04:06:01;;;;;;;15.10;13.17;;;18.00;1.00;;;;;;4988167;28;20487;-84
2021/09/28 04:08:28;;;;;;;12.97;11.77;;;18.00;1.00;;;;;;4987763;28;20419;-83
2021/09/28 04:10:56;;;;;;;11.80;10.70;;;18.00;1.00;;;;;;4989217;28;20455;-86
2021/09/28 04:13:28;;;;;;;11.93;10.57;;;17.90;1.00;;;;;;4976204;28;20460;-79
2021/09/28 04:16:11;;;;;;;12.00;10.10;;;17.80;1.00;;;;;;4980591;28;20544;-79
2021/09/28 04:18:41;;;;;;;13.40;11.70;;;17.80;1.00;;;;;;4973131;28;20519;-78
2021/09/28 04:21:14;;;;;;;12.70;11.50;;;17.80;1.00;;;;;;4970684;28;20485;-77
2021/09/28 04:23:53;;;;;;;14.30;13.00;;;17.80;1.00;;;;;;4971416;28;20466;-78
2021/09/28 04:26:26;;;;;;;15.40;12.70;;;17.80;1.00;;;;;;4964946;28;20436;-79
2021/09/28 04:28:54;;;;;;;14.17;12.80;;;17.80;1.00;;;;;;4962134;28;20587;-79
2021/09/28 04:31:47;;;;;;;15.03;13.43;;;17.70;1.00;;;;;;4976675;28;20516;-78
2021/09/28 04:34:28;;;;;;;15.00;13.47;;;17.70;1.00;;;;;;4976384;28;20476;-78
2021/09/28 04:37:14;;;;;;;14.23;12.00;;;17.60;1.00;;;;;;4973124;28;20553;-78
2021/09/28 04:43:19;;;;;;;12.80;11.60;;;17.60;1.00;;;;;;4971784;28;21014;-79
2021/09/28 04:46:03;;;;;;;15.13;11.30;;;17.60;1.00;;;;;;4964968;28;20459;-78
2021/09/28 04:48:55;;;;;;;10.50;9.40;;;17.60;1.00;;;;;;4966364;28;21036;-79
2021/09/28 04:51:58;;;;;;;11.83;10.53;;;17.50;1.00;;;;;;4971407;28;21144;-79
2021/09/28 04:54:32;;;;;;;12.20;10.97;;;17.50;1.00;;;;;;4971923;28;20466;-80
2021/09/28 04:57:23;;;;;;;9.70;8.70;;;17.50;1.00;;;;;;4961483;28;20465;-79
2021/09/28 05:00:03;;;;;;;11.50;8.20;;;17.40;1.00;;;;;;4970705;28;20465;-78
2021/09/28 05:02:52;;;;;;;8.30;7.40;;;17.40;1.00;;;;;;4972207;28;20423;-79
2021/09/28 05:08:28;;;;;;;6.63;6.03;;;17.20;1.00;;;;;;4964971;28;20434;-78
2021/09/28 05:11:20;;;;;;;6.73;6.13;;;17.20;1.00;;;;;;4974279;28;20462;-78
2021/09/28 05:14:09;;;;;;;;;;;;;;;;;;;;;
2021/09/28 05:16:58;;;;;;;6.63;5.27;;;17.10;1.00;;;;;;4969564;28;20506;-78
2021/09/28 05:19:38;;;;;;;7.13;5.83;;;17.00;1.00;;;;;;4967036;28;20443;-78
2021/09/28 05:22:29;;;;;;;7.07;6.37;;;17.00;1.00;;;;;;4981235;28;20474;-78
2021/09/28 05:25:08;;;;;;;8.70;7.80;;;17.00;1.00;;;;;;4958162;28;20472;-78
2021/09/28 05:28:01;;;;;;;8.10;5.90;;;17.00;1.00;;;;;;4970067;28;20469;-77
2021/09/28 05:30:49;;;;;;;8.80;5.77;;;16.90;1.00;;;;;;4955293;28;20514;-79
2021/09/28 05:37:03;;;;;;;7.80;4.60;;;16.90;1.00;;;;;;4976903;28;20473;-79
2021/09/28 05:39:34;;;;;;;6.00;4.20;;;16.80;1.00;;;;;;4973292;28;20424;-81
2021/09/28 05:42:06;;;;;;;8.80;4.00;;;16.80;1.00;;;;;;4973035;28;20432;-81
2021/09/28 05:44:48;;;;;;;6.27;3.90;;;16.80;1.00;;;;;;4961304;28;21201;-78
2021/09/28 05:47:28;;;;;;;7.93;4.00;;;16.80;1.00;;;;;;4980546;28;20454;-79
2021/09/28 05:50:21;;;;;;;6.93;4.70;;;16.80;1.00;;;;;;4982189;28;20465;-78
2021/09/28 05:55:50;;;;;;;8.80;4.50;;;16.90;1.00;;;;;;4992890;28;20438;-78
2021/09/28 05:58:55;;;;;;;7.43;4.33;;;16.80;1.00;;;;;;4969800;28;20459;-77
2021/09/28 06:01:38;;;;;;;6.40;3.23;;;16.90;1.00;;;;;;4976502;28;20507;-77
2021/09/28 06:04:18;;;;;;;6.93;4.10;;;16.90;1.00;;;;;;4972826;28;20430;-78
2021/09/28 06:06:59;;;;;;;4.90;3.07;;;16.80;1.00;;;;;;4977028;28;20520;-78
2021/09/28 06:09:38;;;;;;;5.13;3.10;;;16.90;1.00;;;;;;4959102;28;20478;-79
2021/09/28 06:12:23;;;;;;;4.17;2.70;;;16.90;1.00;;;;;;4964158;28;20462;-78
2021/09/28 06:14:55;;;;;;;6.03;3.67;;;16.90;1.00;;;;;;4973744;28;20500;-78
2021/09/28 06:17:55;;;;;;;4.87;2.53;;;16.90;1.00;;;;;;4972021;28;20525;-80
2021/09/28 06:20:34;;;;;;;4.77;2.70;;;17.00;1.00;;;;;;4964993;28;20477;-77
2021/09/28 06:23:23;;;;;;;4.10;3.03;;;16.90;1.00;;;;;;4965883;28;20479;-78
2021/09/28 06:26:24;;;;;;;5.10;3.20;;;17.00;1.00;;;;;;4965150;28;20457;-78
2021/09/28 06:28:51;;;;;;;5.47;2.37;;;17.00;1.00;;;;;;4962913;28;20768;-77
2021/09/28 06:31:26;;;;;;;6.67;2.50;;;17.00;1.00;;;;;;4969742;28;20492;-77
2021/09/28 06:37:08;;;;;;;;;;;;;;;;;;;;;
2021/09/28 06:39:45;;;;;;;8.30;2.80;;;17.10;1.00;;;;;;4965861;28;21347;-77
2021/09/28 06:42:20;;;;;;;5.63;3.37;;;17.10;1.00;;;;;;4956982;28;21746;-78
2021/09/28 06:44:48;;;;;;;4.40;2.90;;;17.10;1.00;;;;;;4963429;28;20507;-77
2021/09/28 06:47:19;;;;;;;5.50;3.43;;;17.10;1.00;;;;;;4951332;28;20458;-78
2021/09/28 06:49:53;;;;;;;7.10;3.37;;;17.20;1.00;;;;;;4968941;28;20451;-77
2021/09/28 06:52:45;;;;;;;5.00;3.03;;;17.20;1.00;;;;;;4969102;28;20564;-77
2021/09/28 06:55:16;;;;;;;7.47;3.00;;;17.20;1.00;;;;;;4965111;28;20472;-77
2021/09/28 06:57:48;;;;;;;4.93;3.90;;;17.30;1.00;;;;;;4968408;28;20454;-77
2021/09/28 07:00:16;;;;;;;4.70;2.60;;;17.30;1.00;;;;;;4967680;28;20451;-77
2021/09/28 07:02:56;;;;;;;7.10;2.80;;;17.40;1.00;;;;;;4964906;28;20464;-77
2021/09/28 07:05:43;;;;;;;8.77;3.03;;;17.60;1.00;;;;;;4971285;28;20475;-77
2021/09/28 07:08:15;;;;;;;9.83;3.57;;;17.70;1.00;;;;;;4968910;28;20489;-78
2021/09/28 07:10:52;;;;;;;3.80;2.50;;;17.80;1.00;;;;;;4970861;28;20468;-78
2021/09/28 07:13:28;;;;;;;5.47;2.70;;;17.80;1.00;;;;;;4969346;28;20431;-78
2021/09/28 07:16:05;;;;;;;5.60;2.53;;;17.80;1.00;;;;;;4965217;28;20475;-77
2021/09/28 07:18:37;;;;;;;5.37;2.90;;;17.80;1.00;;;;;;4956356;28;20521;-78
2021/09/28 07:21:09;;;;;;;3.87;1.97;;;17.70;1.00;;;;;;4969786;28;20593;-77
2021/09/28 07:23:40;;;;;;;6.10;3.23;;;17.60;1.00;;;;;;4967401;28;20481;-79
2021/09/28 07:26:20;;;;;;;4.57;3.10;;;17.50;1.00;;;;;;4955769;28;20461;-77
2021/09/28 07:29:02;;;;;;;8.33;3.17;;;17.50;1.00;;;;;;4967027;28;20463;-80
2021/09/28 07:31:45;;;;;;;6.73;3.20;;;17.40;1.00;;;;;;4974306;28;20453;-78
2021/09/28 07:34:31;;;;;;;6.53;2.40;;;17.40;1.00;;;;;;4970320;28;20545;-77
2021/09/28 07:37:17;;;;;;;8.23;3.00;;;17.50;1.00;;;;;;4968377;28;20450;-78
2021/09/28 07:40:01;;;;;;;8.47;3.00;;;17.50;1.00;;;;;;4972198;28;20514;-78
2021/09/28 07:45:36;;;;;;;7.33;3.13;;;17.50;1.00;;;;;;4942318;28;20459;-77
2021/09/28 07:48:23;;;;;;;5.80;2.63;;;17.40;1.00;;;;;;4968321;28;21718;-77
2021/09/28 07:51:18;;;;;;;10.90;3.50;;;17.40;1.00;;;;;;4971185;28;20489;-78
2021/09/28 07:54:00;;;;;;;8.10;2.97;;;17.50;1.00;;;;;;4970708;28;20463;-77
2021/09/28 07:56:59;;;;;;;6.57;2.80;;;17.40;1.00;;;;;;4972541;28;20493;-78
2021/09/28 07:59:34;;;;;;;11.90;4.70;;;17.30;1.00;;;;;;4960222;28;20458;-78
2021/09/28 08:02:20;;;;;;;7.90;4.10;;;17.30;1.00;;;;;;4985619;28;20478;-78
2021/09/28 08:04:58;;;;;;;11.17;3.13;;;17.40;1.00;;;;;;4965967;28;21191;-79
2021/09/28 08:07:32;;;;;;;8.20;3.50;;;17.40;1.00;;;;;;4972129;28;20454;-78
2021/09/28 08:10:21;;;;;;;7.87;3.50;;;17.50;1.00;;;;;;4968039;28;20469;-78
2021/09/28 08:12:53;;;;;;;7.10;3.53;;;17.50;1.00;;;;;;4971355;28;20496;-80
2021/09/28 08:15:47;;;;;;;6.60;3.20;;;17.50;1.00;;;;;;4963089;28;20494;-77
2021/09/28 08:30:24;;;;;;;5.67;3.00;;;17.30;1.00;;;;;;4974656;28;20961;-79
2021/09/28 08:33:18;;;;;;;7.30;3.60;;;17.10;1.00;;;;;;4971268;28;20471;-77
2021/09/28 08:36:05;;;;;;;6.77;3.33;;;16.90;1.00;;;;;;4985146;28;20461;-79
2021/09/28 08:38:38;;;;;;;9.70;3.60;;;16.80;1.00;;;;;;4968669;28;21140;-80
2021/09/28 08:41:15;;;;;;;9.47;4.10;;;16.60;1.00;;;;;;4970039;28;21447;-79
2021/09/28 08:44:12;;;;;;;9.10;3.47;;;16.60;1.00;;;;;;4974343;28;20853;-78
2021/09/28 08:46:55;;;;;;;7.63;4.00;;;16.50;1.00;;;;;;4966667;28;21218;-79
2021/09/28 08:49:25;;;;;;;6.80;3.60;;;16.50;1.00;;;;;;4960924;28;20438;-78
2021/09/28 08:52:10;;;;;;;5.90;3.27;;;16.50;1.00;;;;;;4968506;28;20454;-78
2021/09/28 08:54:40;;;;;;;5.43;3.37;;;16.50;1.00;;;;;;4970508;28;20541;-77
2021/09/28 08:57:20;;;;;;;9.27;3.73;;;16.40;1.00;;;;;;4953187;28;20508;-78
2021/09/28 08:59:58;;;;;;;6.50;4.13;;;16.40;1.00;;;;;;4964271;28;20457;-78
2021/09/28 09:02:40;;;;;;;7.93;4.40;;;16.40;1.00;;;;;;4969674;28;20461;-78
2021/09/28 09:05:14;;;;;;;8.33;4.13;;;16.50;1.00;;;;;;4975477;28;20504;-78
2021/09/28 09:07:42;;;;;;;7.17;3.73;;;16.60;1.00;;;;;;4967823;28;20437;-78
2021/09/28 09:10:11;;;;;;;7.90;3.57;;;16.70;1.00;;;;;;4983918;28;21067;-78
2021/09/28 09:12:41;;;;;;;10.40;5.40;;;16.80;1.00;;;;;;4966201;28;20455;-78
2021/09/28 09:15:21;;;;;;;6.83;4.43;;;16.70;1.00;;;;;;4966062;28;21080;-78
2021/09/28 09:17:51;;;;;;;13.00;5.07;;;16.70;1.00;;;;;;4971231;28;21399;-78
2021/09/28 09:20:42;;;;;;;7.87;3.70;;;16.70;1.00;;;;;;4968751;28;20494;-77
2021/09/28 09:23:22;;;;;;;9.23;4.40;;;16.60;1.00;;;;;;4949727;28;20566;-77
2021/09/28 09:26:06;;;;;;;9.37;4.80;;;16.50;1.00;;;;;;4967850;28;20473;-80
2021/09/28 09:28:45;;;;;;;6.60;3.73;;;16.40;1.00;;;;;;4971353;28;20470;-77
2021/09/28 09:31:24;;;;;;;7.40;3.33;;;16.40;1.00;;;;;;4972017;28;20474;-77
2021/09/28 09:33:54;;;;;;;7.73;4.43;;;16.40;1.00;;;;;;4969752;28;20450;-79
2021/09/28 09:36:24;;;;;;;6.73;4.80;;;16.50;1.00;;;;;;4972176;28;20543;-78
2021/09/28 09:38:55;;;;;;;7.80;3.23;;;16.60;1.00;;;;;;4968514;28;20455;-79
2021/09/28 09:41:28;;;;;;;7.23;4.07;;;16.60;1.00;;;;;;4983209;28;21433;-79
2021/09/28 09:44:08;;;;;;;11.87;4.70;;;16.70;1.00;;;;;;4968649;28;20452;-78
2021/09/28 09:46:46;;;;;;;6.03;3.50;;;16.80;1.00;;;;;;4968018;28;20593;-78
2021/09/28 09:49:22;;;;;;;7.47;3.70;;;16.80;1.00;;;;;;4965811;28;21452;-78
2021/09/28 09:51:51;;;;;;;10.03;3.83;;;16.70;1.00;;;;;;4971532;28;20482;-77
2021/09/28 09:54:30;;;;;;;6.10;3.70;;;16.70;1.00;;;;;;4974796;28;20447;-78
2021/09/28 09:57:04;;;;;;;7.13;4.93;;;16.70;1.00;;;;;;4983317;28;20453;-77
2021/09/28 09:59:32;;;;;;;5.63;3.63;;;16.80;1.00;;;;;;4966742;28;20446;-78
2021/09/28 10:02:02;;;;;;;7.73;4.33;;;16.90;1.00;;;;;;4969682;28;20454;-78
2021/09/28 10:04:30;;;;;;;8.27;3.73;;;17.00;1.00;;;;;;4971672;28;20477;-79
2021/09/28 10:07:02;;;;;;;7.03;3.67;;;17.20;1.00;;;;;;4969221;28;20445;-79
2021/09/28 10:09:34;;;;;;;7.83;4.07;;;17.30;1.00;;;;;;4970247;28;20464;-78
2021/09/28 10:12:06;;;;;;;7.20;4.30;;;17.30;1.00;;;;;;4984374;28;20482;-78
2021/09/28 10:14:40;;;;;;;8.10;6.37;;;17.20;1.00;;;;;;4957584;28;22487;-78
2021/09/28 10:17:43;;;;;;;9.20;5.83;;;17.10;1.00;;;;;;4958865;28;20458;-79
2021/09/28 10:20:25;;;;;;;8.10;5.77;;;17.00;1.00;;;;;;4967699;28;20462;-78
2021/09/28 10:22:55;;;;;;;8.90;5.37;;;16.90;1.00;;;;;;4970710;28;20465;-78
2021/09/28 10:25:38;;;;;;;10.63;5.60;;;16.80;1.00;;;;;;4971115;28;20502;-78
2021/09/28 10:28:32;;;;;;;10.60;5.53;;;16.90;1.00;;;;;;4968106;28;20551;-77
2021/09/28 10:30:59;;;;;;;9.07;5.67;;;16.90;1.00;;;;;;4972029;28;20443;-78
2021/09/28 10:33:39;;;;;;;10.60;5.83;;;16.90;1.00;;;;;;4967210;28;21152;-77
2021/09/28 10:36:11;;;;;;;10.23;6.60;;;16.90;1.00;;;;;;4981484;28;21182;-78
2021/09/28 10:38:58;;;;;;;12.03;6.60;;;17.00;1.00;;;;;;4954234;28;20494;-79
2021/09/28 10:41:52;;;;;;;8.10;5.07;;;17.10;1.00;;;;;;4964168;28;21376;-77
2021/09/28 10:44:39;;;;;;;12.87;5.97;;;17.20;1.00;;;;;;4957597;28;20540;-79
2021/09/28 10:47:07;;;;;;;9.70;7.90;;;17.40;1.00;;;;;;4966935;28;20443;-78
2021/09/28 10:49:38;;;;;;;9.77;5.63;;;17.50;1.00;;;;;;4982981;28;20462;-79
2021/09/28 10:52:39;;;;;;;8.80;5.53;;;17.50;1.00;;;;;;4956906;28;20455;-79
2021/09/28 10:55:30;;;;;;;10.23;4.90;;;17.50;1.00;;;;;;4965335;28;20442;-78
2021/09/28 10:58:17;;;;;;;10.97;5.60;;;17.40;1.00;;;;;;4984375;28;21393;-78
2021/09/28 11:01:16;;;;;;;8.20;4.20;;;17.50;1.00;;;;;;4986581;28;20635;-78
2021/09/28 11:04:04;;;;;;;8.87;4.47;;;17.50;1.00;;;;;;4975117;28;20451;-78
2021/09/28 11:06:58;;;;;;;6.90;5.37;;;17.60;1.00;;;;;;4974687;28;20498;-79
2021/09/28 11:09:43;;;;;;;4.83;3.60;;;17.60;1.00;;;;;;4969185;28;20460;-78
2021/09/28 11:12:14;;;;;;;6.83;4.20;;;17.60;1.00;;;;;;4970602;28;20470;-78
2021/09/28 11:14:48;;;;;;;11.60;8.47;;;17.60;1.00;;;;;;4970766;28;20474;-78
2021/09/28 11:17:18;;;;;;;7.50;4.37;;;17.60;1.00;;;;;;4969825;28;20453;-77
2021/09/28 11:19:49;;;;;;;6.57;4.47;;;17.50;1.00;;;;;;4984738;28;20454;-77
2021/09/28 11:22:40;;;;;;;10.60;4.83;;;17.40;1.00;;;;;;4974560;28;20556;-79
2021/09/28 11:25:15;;;;;;;10.70;5.10;;;17.40;1.00;;;;;;4975159;28;20462;-79
2021/09/28 11:28:09;;;;;;;9.33;5.33;;;17.30;1.00;;;;;;4971118;28;20693;-78
2021/09/28 11:30:59;;;;;;;10.00;4.80;;;17.40;1.00;;;;;;4971579;28;20523;-79
2021/09/28 11:33:38;;;;;;;11.27;4.97;;;17.40;1.00;;;;;;4970825;28;20497;-80
2021/09/28 11:36:08;;;;;;;6.03;4.00;;;17.40;1.00;;;;;;4987901;28;20499;-80
2021/09/28 11:38:52;;;;;;;8.83;4.17;;;17.50;1.00;;;;;;5001666;28;20486;-77
2021/09/28 11:41:27;;;;;;;7.00;4.07;;;17.70;1.00;;;;;;4985076;28;21099;-77
2021/09/28 11:44:10;;;;;;;8.87;3.83;;;17.90;1.00;;;;;;5005394;28;20459;-78
2021/09/28 11:46:40;;;;;;;280.27;155.90;;;18.00;1.00;;;;;;4975414;28;20447;-79
2021/09/28 11:49:26;;;;;;;26.13;19.47;;;18.20;1.00;;;;;;5003355;28;20446;-79
2021/09/28 11:51:57;;;;;;;11.67;5.60;;;18.30;1.00;;;;;;4985357;28;20464;-78
2021/09/28 11:54:48;;;;;;;7.40;4.40;;;18.40;1.00;;;;;;5003798;28;20925;-78
2021/09/28 11:57:20;;;;;;;8.87;4.70;;;18.60;1.00;;;;;;4983152;28;20458;-78
2021/09/28 11:59:47;;;;;;;6.20;3.53;;;18.80;1.00;;;;;;4969991;28;20468;-78
2021/09/28 12:02:31;;;;;;;6.10;4.20;;;19.00;1.00;;;;;;4969971;28;20539;-78
2021/09/28 12:11:21;;;;;;;10.07;4.77;;;19.30;1.00;;;;;;4954636;28;20464;-78
2021/09/28 12:14:06;;;;;;;9.30;5.30;;;19.30;1.00;;;;;;4966917;28;20865;-77
2021/09/28 12:16:42;;;;;;;9.20;5.83;;;19.30;1.00;;;;;;4968105;28;21342;-79
2021/09/28 12:19:36;;;;;;;9.60;4.80;;;19.30;1.00;;;;;;4965002;28;20456;-78
2021/09/28 12:22:12;;;;;;;7.70;5.93;;;19.30;1.00;;;;;;4977625;28;20590;-78
2021/09/28 12:24:56;;;;;;;6.47;4.87;;;19.30;1.00;;;;;;4970260;28;20447;-78
2021/09/28 12:27:30;;;;;;;9.17;5.00;;;19.40;1.00;;;;;;4969494;28;20996;-79
2021/09/28 12:30:20;;;;;;;7.33;4.00;;;19.60;1.00;;;;;;4966783;28;21285;-80
2021/09/28 12:33:02;;;;;;;8.77;4.60;;;19.70;1.00;;;;;;4967985;28;20444;-77
2021/09/28 12:35:36;;;;;;;13.10;5.37;;;19.80;1.00;;;;;;4966405;28;20459;-76
2021/09/28 12:38:10;;;;;;;10.07;4.80;;;19.80;1.00;;;;;;4966561;28;20500;-77
2021/09/28 12:40:42;;;;;;;5.10;3.90;;;19.80;1.00;;;;;;4969151;28;20446;-78
2021/09/28 12:43:37;;;;;;;10.03;5.60;;;19.80;1.00;;;;;;4968851;28;20466;-77
2021/09/28 12:46:25;;;;;;;10.93;5.53;;;20.00;1.00;;;;;;4970537;28;21312;-77
2021/09/28 12:48:59;;;;;;;7.93;4.10;;;20.00;1.00;;;;;;4990097;28;20591;-78
2021/09/28 12:51:29;;;;;;;6.83;3.90;;;20.10;1.00;;;;;;4954897;28;20478;-77
2021/09/28 12:53:59;;;;;;;12.63;4.63;;;20.10;1.00;;;;;;4971799;28;20446;-78
2021/09/28 12:56:27;;;;;;;17.77;5.50;;;20.10;1.00;;;;;;4972477;28;20424;-78
2021/09/28 12:59:07;;;;;;;8.97;3.50;;;20.20;1.00;;;;;;4965957;28;20483;-78
2021/09/28 13:01:49;;;;;;;6.00;4.53;;;20.30;1.00;;;;;;4965267;28;20440;-79
2021/09/28 13:04:28;;;;;;;7.87;4.10;;;20.30;1.00;;;;;;4985665;28;20459;-77
2021/09/28 13:07:09;;;;;;;5.90;3.50;;;20.30;1.00;;;;;;4962896;28;20604;-78
2021/09/28 13:09:46;;;;;;;6.70;3.77;;;20.30;1.00;;;;;;4967144;28;20438;-78
2021/09/28 13:12:19;;;;;;;9.50;6.50;;;20.30;1.00;;;;;;4971712;28;20460;-78
2021/09/28 13:14:53;;;;;;;9.97;4.13;;;20.30;1.00;;;;;;4970031;28;20528;-78
2021/09/28 13:17:23;;;;;;;9.97;4.20;;;20.40;1.00;;;;;;4973188;28;21197;-76
2021/09/28 13:19:51;;;;;;;12.20;4.63;;;20.50;1.00;;;;;;4972304;28;20477;-79
2021/09/28 13:22:29;;;;;;;8.57;3.90;;;20.50;1.00;;;;;;4953525;28;20418;-78
2021/09/28 13:25:04;;;;;;;6.97;4.37;;;20.50;1.00;;;;;;4972086;28;20440;-78
2021/09/28 13:27:49;;;;;;;11.97;4.87;;;20.60;1.00;;;;;;4967873;28;20460;-78
2021/09/28 13:30:42;;;;;;;8.00;3.67;;;20.70;1.00;;;;;;4972774;28;20447;-79
2021/09/28 13:33:21;;;;;;;8.30;4.17;;;20.70;1.00;;;;;;4965275;28;20912;-78
2021/09/28 13:35:53;;;;;;;6.53;4.40;;;20.80;1.00;;;;;;4972610;28;20421;-77
2021/09/28 13:38:38;;;;;;;7.60;3.13;;;21.10;1.00;;;;;;4973056;28;20936;-77
2021/09/28 13:41:15;;;;;;;9.10;4.90;;;21.50;1.00;;;;;;4967450;28;20481;-77
2021/09/28 13:43:55;;;;;;;6.03;4.00;;;21.70;1.00;;;;;;4972682;28;21201;-77
2021/09/28 13:46:29;;;;;;;7.67;3.33;;;21.80;1.00;;;;;;4975438;28;20427;-78
2021/09/28 13:49:13;;;;;;;6.30;3.73;;;21.80;1.00;;;;;;4985399;28;20462;-79
2021/09/28 13:51:48;;;;;;;6.87;3.30;;;21.90;1.00;;;;;;4971772;28;20473;-78
2021/09/28 13:54:29;;;;;;;8.57;4.70;;;21.80;1.00;;;;;;4974504;28;20442;-78
2021/09/28 13:57:04;;;;;;;7.47;3.83;;;21.90;1.00;;;;;;4953553;28;20434;-77
2021/09/28 13:59:53;;;;;;;9.43;4.13;;;22.10;1.00;;;;;;4976383;28;20491;-78
2021/09/28 14:03:05;;;;;;;9.70;4.13;;;22.20;1.00;;;;;;4964968;28;20557;-77
2021/09/28 14:05:48;;;;;;;17.53;14.83;;;22.10;1.00;;;;;;4969728;28;20453;-78
2021/09/28 14:08:27;;;;;;;8.13;3.77;;;22.00;1.00;;;;;;4975827;28;20594;-78
2021/09/28 14:11:36;;;;;;;9.13;4.13;;;21.90;1.00;;;;;;4959140;28;20458;-79
2021/09/28 14:14:13;;;;;;;8.27;3.37;;;21.70;1.00;;;;;;4974528;28;20954;-78